Time;durP1;ratioP1;P1;durP2;ratioP2;P2;SDS_P1;SDS_P2;PMS_P1;PMS_P2;Temp;Humidity;BMP_temperature;BMP_pressure;BME280_temperature;BME280_humidity;BME280_pressure;Samples;Min_cycle;Max_cycle;Signal;HPM_P1;HPM_P2
2022/05/10 00:00:24;;;;;;;7.57;3.22;;;;;;;;;;5070256;28;20036;-70
2022/05/10 00:02:53;;;;;;;5.93;2.70;;;;;;;;;;5070593;28;20028;-69
2022/05/10 00:05:24;;;;;;;7.28;2.90;;;;;;;;;;5070634;28;20509;-67
2022/05/10 00:07:50;;;;;;;5.50;2.75;;;;;;;;;;5070209;28;20162;-64
2022/05/10 00:10:15;;;;;;;5.78;3.00;;;;;;;;;;5070449;28;20123;-70
2022/05/10 00:12:40;;;;;;;4.47;2.90;;;;;;;;;;5070286;28;20036;-64
2022/05/10 00:15:06;;;;;;;6.47;2.70;;;;;;;;;;5069889;28;20052;-66
2022/05/10 00:17:38;;;;;;;4.88;2.60;;;;;;;;;;5070226;28;20028;-65
2022/05/10 00:20:07;;;;;;;6.15;2.80;;;;;;;;;;5070522;28;20029;-68
2022/05/10 00:22:32;;;;;;;4.82;2.90;;;;;;;;;;5070534;28;20031;-69
2022/05/10 00:24:58;;;;;;;6.63;2.90;;;;;;;;;;5069222;28;20024;-65
2022/05/10 00:27:23;;;;;;;5.25;2.90;;;;;;;;;;5069844;28;20112;-68
2022/05/10 00:29:49;;;;;;;8.30;3.00;;;;;;;;;;5069733;28;20101;-69
2022/05/10 00:32:14;;;;;;;7.20;2.83;;;;;;;;;;5070094;28;20020;-65
2022/05/10 00:34:40;;;;;;;8.00;3.00;;;;;;;;;;5070172;28;20055;-64
2022/05/10 00:37:07;;;;;;;5.65;2.85;;;;;;;;;;5070493;28;20024;-65
2022/05/10 00:39:33;;;;;;;7.82;3.00;;;;;;;;;;5070210;28;20032;-67
2022/05/10 00:42:15;;;;;;;4.80;2.70;;;;;;;;;;5069706;28;20025;-72
2022/05/10 00:44:49;;;;;;;5.22;2.75;;;;;;;;;;5069582;28;20031;-68
2022/05/10 00:47:26;;;;;;;9.90;2.88;;;;;;;;;;5069649;28;20033;-64
2022/05/10 00:50:11;;;;;;;5.82;2.90;;;;;;;;;;5069973;28;20103;-64
2022/05/10 00:52:52;;;;;;;6.53;3.10;;;;;;;;;;5069718;28;20024;-69
2022/05/10 00:55:23;;;;;;;7.43;3.45;;;;;;;;;;5069827;28;20036;-65
2022/05/10 00:58:18;;;;;;;6.00;3.05;;;;;;;;;;5069642;28;20103;-64
2022/05/10 01:00:45;;;;;;;7.18;3.10;;;;;;;;;;5058224;28;20340;-68
2022/05/10 01:03:24;;;;;;;6.80;3.45;;;;;;;;;;5069287;28;20100;-67
2022/05/10 01:05:49;;;;;;;7.55;3.50;;;;;;;;;;5069377;28;20024;-66
2022/05/10 01:08:22;;;;;;;6.82;3.58;;;;;;;;;;5069336;28;20403;-67
2022/05/10 01:11:29;;;;;;;7.32;4.03;;;;;;;;;;5069562;28;20028;-64
2022/05/10 01:14:04;;;;;;;8.90;3.75;;;;;;;;;;5055635;28;20098;-68
2022/05/10 01:16:29;;;;;;;5.60;3.35;;;;;;;;;;5069263;28;20052;-63
2022/05/10 01:18:55;;;;;;;13.52;5.05;;;;;;;;;;5069140;28;20421;-67
2022/05/10 01:21:34;;;;;;;20.23;5.60;;;;;;;;;;5069328;28;20031;-67
2022/05/10 01:24:09;;;;;;;17.02;6.18;;;;;;;;;;5069084;28;20103;-67
2022/05/10 01:26:53;;;;;;;14.57;5.22;;;;;;;;;;5069686;28;20036;-66
2022/05/10 01:29:26;;;;;;;14.18;5.22;;;;;;;;;;5068853;28;20502;-65
2022/05/10 01:34:43;;;;;;;9.35;4.50;;;;;;;;;;5069039;28;20443;-65
2022/05/10 01:37:14;;;;;;;12.25;4.65;;;;;;;;;;5069167;28;20024;-68
2022/05/10 01:40:00;;;;;;;10.00;3.95;;;;;;;;;;5068791;28;20029;-64
2022/05/10 01:42:45;;;;;;;9.95;3.53;;;;;;;;;;5068918;28;20048;-64
2022/05/10 01:45:22;;;;;;;8.98;4.05;;;;;;;;;;5068890;28;20059;-66
2022/05/10 01:47:55;;;;;;;8.45;3.72;;;;;;;;;;5068826;28;20533;-64
2022/05/10 01:50:29;;;;;;;9.90;3.72;;;;;;;;;;5069631;28;20025;-68
2022/05/10 01:53:12;;;;;;;7.68;3.60;;;;;;;;;;5068605;28;20024;-66
2022/05/10 01:55:41;;;;;;;7.03;3.72;;;;;;;;;;5068577;28;20024;-63
2022/05/10 01:58:17;;;;;;;7.93;3.93;;;;;;;;;;5068869;28;20031;-68
2022/05/10 02:00:49;;;;;;;9.23;4.22;;;;;;;;;;5068802;28;20044;-69
2022/05/10 02:03:20;;;;;;;7.30;3.45;;;;;;;;;;5068862;28;21015;-64
2022/05/10 02:06:05;;;;;;;6.13;3.58;;;;;;;;;;5068764;28;20519;-70
2022/05/10 02:08:39;;;;;;;7.60;3.20;;;;;;;;;;5068792;28;20024;-64
2022/05/10 02:11:10;;;;;;;5.63;3.30;;;;;;;;;;5068848;28;20028;-67
2022/05/10 02:14:07;;;;;;;5.40;3.28;;;;;;;;;;5068548;28;20086;-66
2022/05/10 02:16:45;;;;;;;5.43;3.03;;;;;;;;;;5057467;28;20044;-67
2022/05/10 02:19:25;;;;;;;9.18;3.22;;;;;;;;;;5068890;28;20024;-67
2022/05/10 02:21:59;;;;;;;6.45;3.33;;;;;;;;;;5069163;28;20033;-70
2022/05/10 02:24:38;;;;;;;7.53;2.80;;;;;;;;;;5068565;28;20441;-68
2022/05/10 02:27:10;;;;;;;8.20;2.90;;;;;;;;;;5068825;28;20090;-67
2022/05/10 02:29:52;;;;;;;5.00;3.10;;;;;;;;;;5068061;28;20487;-67
2022/05/10 02:35:14;;;;;;;5.15;3.25;;;;;;;;;;5068775;28;20085;-64
2022/05/10 02:37:40;;;;;;;6.38;2.95;;;;;;;;;;5068849;28;20029;-64
2022/05/10 02:40:07;;;;;;;6.75;3.38;;;;;;;;;;5068647;28;20021;-69
2022/05/10 02:42:33;;;;;;;6.07;3.20;;;;;;;;;;5068867;28;20040;-67
2022/05/10 02:45:00;;;;;;;5.63;2.90;;;;;;;;;;5067697;28;20342;-69
2022/05/10 02:47:41;;;;;;;6.07;2.90;;;;;;;;;;5070124;28;20062;-65
2022/05/10 02:50:14;;;;;;;5.15;2.83;;;;;;;;;;5072180;28;20099;-65
2022/05/10 02:52:40;;;;;;;6.00;2.78;;;;;;;;;;5072312;28;20035;-69
2022/05/10 02:55:12;;;;;;;8.73;3.05;;;;;;;;;;5072050;28;20115;-64
2022/05/10 02:57:37;;;;;;;7.40;2.88;;;;;;;;;;5072112;28;20033;-69
2022/05/10 03:00:06;;;;;;;6.25;2.83;;;;;;;;;;5071520;28;20032;-67
2022/05/10 03:02:37;;;;;;;6.47;2.80;;;;;;;;;;5072366;28;20066;-64
2022/05/10 03:05:04;;;;;;;6.55;3.38;;;;;;;;;;5071483;28;20031;-67
2022/05/10 03:07:31;;;;;;;8.07;3.00;;;;;;;;;;5071723;28;20056;-67
2022/05/10 03:09:56;;;;;;;6.95;3.00;;;;;;;;;;5071678;28;20057;-65
2022/05/10 03:12:22;;;;;;;9.40;3.10;;;;;;;;;;5072356;28;20036;-65
2022/05/10 03:14:48;;;;;;;7.05;2.90;;;;;;;;;;5071114;28;20032;-70
2022/05/10 03:17:14;;;;;;;7.00;3.10;;;;;;;;;;5071882;28;20082;-69
2022/05/10 03:19:40;;;;;;;6.53;3.00;;;;;;;;;;5071419;28;20396;-69
2022/05/10 03:22:07;;;;;;;4.88;2.83;;;;;;;;;;5071574;28;20573;-65
2022/05/10 03:24:33;;;;;;;6.65;2.80;;;;;;;;;;5071295;28;20028;-66
2022/05/10 03:27:01;;;;;;;4.75;2.80;;;;;;;;;;5071451;28;20503;-64
2022/05/10 03:29:27;;;;;;;6.63;2.63;;;;;;;;;;5071048;28;20024;-64
2022/05/10 03:31:53;;;;;;;8.38;2.80;;;;;;;;;;5071489;28;20035;-64
2022/05/10 03:37:03;;;;;;;7.82;2.55;;;;;;;;;;5071291;28;20180;-67
2022/05/10 03:39:29;;;;;;;10.23;2.92;;;;;;;;;;5071089;28;20145;-68
2022/05/10 03:41:54;;;;;;;9.68;2.72;;;;;;;;;;5052976;28;20040;-66
2022/05/10 03:44:20;;;;;;;4.18;2.60;;;;;;;;;;5070602;28;20476;-70
2022/05/10 03:46:46;;;;;;;8.70;2.92;;;;;;;;;;5071338;28;20465;-65
2022/05/10 03:49:12;;;;;;;5.22;2.53;;;;;;;;;;5070918;28;20507;-69
2022/05/10 03:51:37;;;;;;;7.80;2.85;;;;;;;;;;5071001;28;20024;-64
2022/05/10 03:54:03;;;;;;;8.10;2.88;;;;;;;;;;5070715;28;20024;-69
2022/05/10 03:56:29;;;;;;;5.10;2.60;;;;;;;;;;5070545;28;20040;-70
2022/05/10 03:58:54;;;;;;;7.10;2.92;;;;;;;;;;5069500;28;20029;-69
2022/05/10 04:01:20;;;;;;;4.07;2.80;;;;;;;;;;5070348;28;20028;-68
2022/05/10 04:03:47;;;;;;;4.90;2.63;;;;;;;;;;5071077;28;20477;-69
2022/05/10 04:06:12;;;;;;;7.10;2.60;;;;;;;;;;5070376;28;20074;-69
2022/05/10 04:08:38;;;;;;;7.30;2.90;;;;;;;;;;5070754;28;20028;-70
2022/05/10 04:11:09;;;;;;;10.25;2.80;;;;;;;;;;5070329;28;20395;-68
2022/05/10 04:13:34;;;;;;;6.78;2.65;;;;;;;;;;5070411;28;20027;-67
2022/05/10 04:16:00;;;;;;;5.80;2.83;;;;;;;;;;5069874;28;20032;-64
2022/05/10 04:18:27;;;;;;;9.40;2.90;;;;;;;;;;5070777;28;20275;-69
2022/05/10 04:20:53;;;;;;;5.85;2.72;;;;;;;;;;5070606;28;20024;-68
2022/05/10 04:23:18;;;;;;;5.05;2.70;;;;;;;;;;5071003;28;20040;-67
2022/05/10 04:25:44;;;;;;;8.32;2.85;;;;;;;;;;5070147;28;20024;-67
2022/05/10 04:28:09;;;;;;;8.10;3.15;;;;;;;;;;5070190;28;20059;-67
2022/05/10 04:30:35;;;;;;;4.50;2.42;;;;;;;;;;5069720;28;20066;-63
2022/05/10 04:33:00;;;;;;;8.50;3.20;;;;;;;;;;5070139;28;20032;-66
2022/05/10 04:35:26;;;;;;;6.07;2.67;;;;;;;;;;5069782;28;20126;-69
2022/05/10 04:37:51;;;;;;;5.18;2.80;;;;;;;;;;5070303;28;20468;-69
2022/05/10 04:43:01;;;;;;;5.47;2.85;;;;;;;;;;5070079;28;20566;-67
2022/05/10 04:45:27;;;;;;;6.47;2.90;;;;;;;;;;5069314;28;20274;-67
2022/05/10 04:47:53;;;;;;;3.45;2.53;;;;;;;;;;5069617;28;20235;-68
2022/05/10 04:50:18;;;;;;;8.57;2.78;;;;;;;;;;5069554;28;20029;-68
2022/05/10 04:52:43;;;;;;;8.43;2.72;;;;;;;;;;5069925;28;20424;-70
2022/05/10 04:55:10;;;;;;;6.60;2.80;;;;;;;;;;5069899;28;20078;-69
2022/05/10 04:57:39;;;;;;;7.25;2.83;;;;;;;;;;5069558;28;20063;-71
2022/05/10 05:00:06;;;;;;;11.48;2.80;;;;;;;;;;5069353;28;20032;-69
2022/05/10 05:02:32;;;;;;;4.97;2.58;;;;;;;;;;5069793;28;20024;-65
2022/05/10 05:04:57;;;;;;;10.40;3.00;;;;;;;;;;5069335;28;20028;-64
2022/05/10 05:07:23;;;;;;;7.13;2.75;;;;;;;;;;5069664;28;20480;-67
2022/05/10 05:09:48;;;;;;;5.65;2.50;;;;;;;;;;5069171;28;20119;-66
2022/05/10 05:12:14;;;;;;;11.05;3.10;;;;;;;;;;5069291;28;20051;-69
2022/05/10 05:14:39;;;;;;;7.85;2.92;;;;;;;;;;5069128;28;20052;-69
2022/05/10 05:17:04;;;;;;;6.30;2.80;;;;;;;;;;5069487;28;20029;-68
2022/05/10 05:19:30;;;;;;;7.95;3.05;;;;;;;;;;5069799;28;20484;-69
2022/05/10 05:21:55;;;;;;;5.63;2.75;;;;;;;;;;5069240;28;20373;-67
2022/05/10 05:24:21;;;;;;;11.07;3.20;;;;;;;;;;5069336;28;20500;-69
2022/05/10 05:26:47;;;;;;;6.38;3.17;;;;;;;;;;5068925;28;20063;-67
2022/05/10 05:29:13;;;;;;;7.72;3.00;;;;;;;;;;5069466;28;20103;-71
2022/05/10 05:31:39;;;;;;;7.20;3.15;;;;;;;;;;5069139;28;20492;-64
2022/05/10 05:34:05;;;;;;;10.70;3.38;;;;;;;;;;5069659;28;20104;-63
2022/05/10 05:36:31;;;;;;;7.00;2.88;;;;;;;;;;5068989;28;20461;-70
2022/05/10 05:38:56;;;;;;;9.55;3.40;;;;;;;;;;5069101;28;20024;-70
2022/05/10 05:41:22;;;;;;;19.05;3.60;;;;;;;;;;5068945;28;20113;-65
2022/05/10 05:43:47;;;;;;;8.48;2.90;;;;;;;;;;5069052;28;20048;-65
2022/05/10 05:46:13;;;;;;;7.88;2.90;;;;;;;;;;5068361;28;20032;-67
2022/05/10 05:48:38;;;;;;;6.50;2.92;;;;;;;;;;5069130;28;20268;-65
2022/05/10 05:51:05;;;;;;;7.55;2.75;;;;;;;;;;5068961;28;20056;-67
2022/05/10 05:53:30;;;;;;;5.68;2.72;;;;;;;;;;5069338;28;20058;-65
2022/05/10 05:56:05;;;;;;;6.88;2.60;;;;;;;;;;5068460;28;20621;-69
2022/05/10 05:58:30;;;;;;;6.50;2.53;;;;;;;;;;5068859;28;20029;-65
2022/05/10 06:00:56;;;;;;;5.13;2.63;;;;;;;;;;5068483;28;20025;-70
2022/05/10 06:03:22;;;;;;;5.68;2.60;;;;;;;;;;5069147;28;20504;-67
2022/05/10 06:05:49;;;;;;;10.45;2.92;;;;;;;;;;5068721;28;20039;-68
2022/05/10 06:08:16;;;;;;;18.02;3.03;;;;;;;;;;5069049;28;20050;-68
2022/05/10 06:10:42;;;;;;;10.25;2.72;;;;;;;;;;5068920;28;20025;-69
2022/05/10 06:13:08;;;;;;;10.15;2.80;;;;;;;;;;5068780;28;20119;-68
2022/05/10 06:15:34;;;;;;;12.73;3.05;;;;;;;;;;5068298;28;20115;-68
2022/05/10 06:17:59;;;;;;;6.47;2.67;;;;;;;;;;5068791;28;20142;-71
2022/05/10 06:20:25;;;;;;;8.65;2.83;;;;;;;;;;5068873;28;20054;-65
2022/05/10 06:22:50;;;;;;;7.05;2.50;;;;;;;;;;5071301;28;20032;-66
2022/05/10 06:25:19;;;;;;;14.95;2.90;;;;;;;;;;5072881;28;20035;-68
2022/05/10 06:27:46;;;;;;;7.88;2.60;;;;;;;;;;5072048;28;20028;-71
2022/05/10 06:30:12;;;;;;;8.70;2.75;;;;;;;;;;5072174;28;20070;-65
2022/05/10 06:32:38;;;;;;;9.55;2.80;;;;;;;;;;5072125;28;20029;-65
2022/05/10 06:35:04;;;;;;;10.73;2.90;;;;;;;;;;5072680;28;20055;-64
2022/05/10 06:40:15;;;;;;;6.43;2.30;;;;;;;;;;5072663;28;20031;-65
2022/05/10 06:42:41;;;;;;;7.70;2.63;;;;;;;;;;5072158;28;20051;-70
2022/05/10 06:45:10;;;;;;;8.55;2.40;;;;;;;;;;5071901;28;20115;-68
2022/05/10 06:47:41;;;;;;;9.07;2.67;;;;;;;;;;5071626;28;20115;-65
2022/05/10 06:50:10;;;;;;;9.60;2.50;;;;;;;;;;5071981;28;20048;-70
2022/05/10 06:52:36;;;;;;;4.85;2.40;;;;;;;;;;5071821;28;20264;-64
2022/05/10 06:55:03;;;;;;;6.82;2.47;;;;;;;;;;5072226;28;20280;-66
2022/05/10 06:57:28;;;;;;;5.80;2.40;;;;;;;;;;5071637;28;20029;-67
2022/05/10 06:59:54;;;;;;;4.13;2.50;;;;;;;;;;5071750;28;20016;-70
2022/05/10 07:02:21;;;;;;;5.22;2.30;;;;;;;;;;5071808;28;20488;-64
2022/05/10 07:04:46;;;;;;;7.45;2.55;;;;;;;;;;5072061;28;20017;-64
2022/05/10 07:07:12;;;;;;;11.55;2.60;;;;;;;;;;5071329;28;20025;-67
2022/05/10 07:09:37;;;;;;;5.85;2.30;;;;;;;;;;5071847;28;20021;-64
2022/05/10 07:12:03;;;;;;;7.55;2.22;;;;;;;;;;5071745;28;20492;-65
2022/05/10 07:14:28;;;;;;;4.63;2.10;;;;;;;;;;5071613;28;20086;-66
2022/05/10 07:16:54;;;;;;;8.40;2.70;;;;;;;;;;5071188;28;20028;-70
2022/05/10 07:19:19;;;;;;;3.80;2.20;;;;;;;;;;5071941;28;20012;-70
2022/05/10 07:21:45;;;;;;;9.65;2.33;;;;;;;;;;5071207;28;20393;-70
2022/05/10 07:24:11;;;;;;;7.55;2.60;;;;;;;;;;5071492;28;20047;-64
2022/05/10 07:26:40;;;;;;;7.38;2.15;;;;;;;;;;5071284;28;20392;-66
2022/05/10 07:29:06;;;;;;;6.90;2.30;;;;;;;;;;5071664;28;20024;-71
2022/05/10 07:31:31;;;;;;;9.93;2.30;;;;;;;;;;5070928;28;20024;-64
2022/05/10 07:33:57;;;;;;;8.65;2.50;;;;;;;;;;5071218;28;20036;-66
2022/05/10 07:36:25;;;;;;;7.57;2.50;;;;;;;;;;5071158;28;20028;-66
2022/05/10 07:38:51;;;;;;;5.57;2.53;;;;;;;;;;5071051;28;20496;-69
2022/05/10 07:41:24;;;;;;;6.63;2.50;;;;;;;;;;5071116;28;20125;-70
2022/05/10 07:43:50;;;;;;;8.63;2.42;;;;;;;;;;5070873;28;20048;-69
2022/05/10 07:46:17;;;;;;;13.13;2.88;;;;;;;;;;5070688;28;20032;-71
2022/05/10 07:48:43;;;;;;;7.20;2.55;;;;;;;;;;5053016;28;20037;-68
2022/05/10 07:51:09;;;;;;;7.07;2.72;;;;;;;;;;5071185;28;20029;-65
2022/05/10 07:53:35;;;;;;;9.45;2.30;;;;;;;;;;5071028;28;20082;-71
2022/05/10 07:56:02;;;;;;;9.75;2.53;;;;;;;;;;5071094;28;20373;-71
2022/05/10 07:58:28;;;;;;;9.77;2.80;;;;;;;;;;5070461;28;20017;-64
2022/05/10 08:00:53;;;;;;;6.75;2.47;;;;;;;;;;5070561;28;20373;-69
2022/05/10 08:03:22;;;;;;;9.10;2.70;;;;;;;;;;5071111;28;20024;-69
2022/05/10 08:05:48;;;;;;;6.97;2.60;;;;;;;;;;5053256;28;20024;-70
2022/05/10 08:08:17;;;;;;;10.57;2.70;;;;;;;;;;5070592;28;20029;-68
2022/05/10 08:10:43;;;;;;;7.18;2.38;;;;;;;;;;5070951;28;20024;-69
2022/05/10 08:13:11;;;;;;;8.57;2.80;;;;;;;;;;5070289;28;20111;-70
2022/05/10 08:15:37;;;;;;;7.82;2.83;;;;;;;;;;5070243;28;20072;-65
2022/05/10 08:18:03;;;;;;;6.88;2.75;;;;;;;;;;5070575;28;20052;-65
2022/05/10 08:20:28;;;;;;;7.50;2.90;;;;;;;;;;5070839;28;20121;-68
2022/05/10 08:22:54;;;;;;;7.97;2.85;;;;;;;;;;5070179;28;20472;-71
2022/05/10 08:25:19;;;;;;;5.82;2.60;;;;;;;;;;5070527;28;20020;-65
2022/05/10 08:27:44;;;;;;;10.43;3.00;;;;;;;;;;5070148;28;20025;-65
2022/05/10 08:30:10;;;;;;;7.63;2.40;;;;;;;;;;5069915;28;20483;-71
2022/05/10 08:32:36;;;;;;;7.10;2.42;;;;;;;;;;5069800;28;20499;-71
2022/05/10 08:35:02;;;;;;;7.07;2.38;;;;;;;;;;5070057;28;20017;-66
2022/05/10 08:37:27;;;;;;;7.78;2.50;;;;;;;;;;5069720;28;20035;-67
2022/05/10 08:39:52;;;;;;;6.35;2.33;;;;;;;;;;5070187;28;20074;-69
2022/05/10 08:42:20;;;;;;;6.18;2.28;;;;;;;;;;5069718;28;20037;-71
2022/05/10 08:44:54;;;;;;;5.32;2.40;;;;;;;;;;5069066;28;20556;-65
2022/05/10 08:47:19;;;;;;;7.03;2.28;;;;;;;;;;5069445;28;20080;-70
2022/05/10 08:49:51;;;;;;;5.05;2.10;;;;;;;;;;5070267;28;20107;-70
2022/05/10 08:52:17;;;;;;;7.38;2.30;;;;;;;;;;5069546;28;20103;-65
2022/05/10 08:54:44;;;;;;;7.85;2.38;;;;;;;;;;5069997;28;20048;-71
2022/05/10 08:57:34;;;;;;;6.72;2.25;;;;;;;;;;5069978;28;20020;-65
2022/05/10 09:00:10;;;;;;;5.15;2.50;;;;;;;;;;5069429;28;20279;-66
2022/05/10 09:02:44;;;;;;;4.97;2.20;;;;;;;;;;5069484;28;20051;-67
2022/05/10 09:05:38;;;;;;;3.58;2.17;;;;;;;;;;5069789;28;20024;-69
2022/05/10 09:08:12;;;;;;;6.60;2.22;;;;;;;;;;5069417;28;20056;-67
2022/05/10 09:10:44;;;;;;;6.15;2.33;;;;;;;;;;5069438;28;20021;-64
2022/05/10 09:13:16;;;;;;;7.25;2.20;;;;;;;;;;5069366;28;20031;-68
2022/05/10 09:15:47;;;;;;;6.32;2.10;;;;;;;;;;5051369;28;20626;-66
2022/05/10 09:18:29;;;;;;;4.65;2.33;;;;;;;;;;5069462;28;20443;-68
2022/05/10 09:21:32;;;;;;;4.85;2.22;;;;;;;;;;5069248;28;20081;-69
2022/05/10 09:24:41;;;;;;;6.95;2.30;;;;;;;;;;5017264;28;20036;-70
2022/05/10 09:27:10;;;;;;;7.68;2.30;;;;;;;;;;5021125;28;20132;-64
2022/05/10 09:29:38;;;;;;;4.93;2.30;;;;;;;;;;5068818;28;20384;-67
2022/05/10 09:35:14;;;;;;;6.03;2.20;;;;;;;;;;5069636;28;20563;-62
2022/05/10 09:37:45;;;;;;;6.20;2.15;;;;;;;;;;5069090;28;20024;-65
2022/05/10 09:40:34;;;;;;;7.35;2.38;;;;;;;;;;5069097;28;20135;-65
2022/05/10 09:43:17;;;;;;;8.15;2.85;;;;;;;;;;5068729;28;20040;-65
2022/05/10 09:45:43;;;;;;;6.28;2.45;;;;;;;;;;5069219;28;20426;-68
2022/05/10 09:48:09;;;;;;;4.30;2.40;;;;;;;;;;5068935;28;20040;-69
2022/05/10 09:50:37;;;;;;;6.85;2.33;;;;;;;;;;5069319;28;20029;-65
2022/05/10 09:53:07;;;;;;;9.23;2.72;;;;;;;;;;5069092;28;20021;-68
2022/05/10 09:55:33;;;;;;;5.22;2.50;;;;;;;;;;5069341;28;20079;-65
2022/05/10 09:58:20;;;;;;;3.78;2.33;;;;;;;;;;5073000;28;20488;-64
2022/05/10 10:00:56;;;;;;;7.05;2.60;;;;;;;;;;5072896;28;20093;-65
2022/05/10 10:03:25;;;;;;;9.13;2.70;;;;;;;;;;5073086;28;20040;-64
2022/05/10 10:05:54;;;;;;;5.97;2.30;;;;;;;;;;5073444;28;20111;-66
2022/05/10 10:08:37;;;;;;;5.75;2.55;;;;;;;;;;5072794;28;20120;-69
2022/05/10 10:11:11;;;;;;;5.85;2.30;;;;;;;;;;5072971;28;20387;-67
2022/05/10 10:13:39;;;;;;;6.03;2.40;;;;;;;;;;5072912;28;20112;-64
2022/05/10 10:16:15;;;;;;;4.82;2.38;;;;;;;;;;5072660;28;20032;-64
2022/05/10 10:18:47;;;;;;;4.72;2.65;;;;;;;;;;5072482;28;20047;-71
2022/05/10 10:21:22;;;;;;;4.75;2.28;;;;;;;;;;5072546;28;20056;-66
2022/05/10 10:23:58;;;;;;;5.88;2.50;;;;;;;;;;5072621;28;20031;-65
2022/05/10 10:26:48;;;;;;;5.40;2.38;;;;;;;;;;5072752;28;20029;-68
2022/05/10 10:29:19;;;;;;;5.68;2.50;;;;;;;;;;5071739;28;20025;-64
2022/05/10 10:32:25;;;;;;;5.90;2.42;;;;;;;;;;5072778;28;20029;-65
2022/05/10 10:35:09;;;;;;;7.00;2.42;;;;;;;;;;5072095;28;20538;-65
2022/05/10 10:37:39;;;;;;;5.38;2.40;;;;;;;;;;5072219;28;20060;-65
2022/05/10 10:40:12;;;;;;;6.10;2.63;;;;;;;;;;5072438;28;20028;-67
2022/05/10 10:42:51;;;;;;;4.57;2.38;;;;;;;;;;5072301;28;20048;-66
2022/05/10 10:45:18;;;;;;;5.78;2.50;;;;;;;;;;5071757;28;20409;-66
2022/05/10 10:48:10;;;;;;;5.15;2.30;;;;;;;;;;5071967;28;20021;-65
2022/05/10 10:50:35;;;;;;;6.13;2.40;;;;;;;;;;5072310;28;20064;-68
2022/05/10 10:53:03;;;;;;;7.15;2.53;;;;;;;;;;5072120;28;20092;-66
2022/05/10 10:55:43;;;;;;;6.63;2.30;;;;;;;;;;5071961;28;20077;-69
2022/05/10 10:58:26;;;;;;;5.43;2.50;;;;;;;;;;5071926;28;20108;-64
2022/05/10 11:01:08;;;;;;;5.47;2.25;;;;;;;;;;5071789;28;20468;-68
2022/05/10 11:04:14;;;;;;;10.82;2.60;;;;;;;;;;5071768;28;20024;-67
2022/05/10 11:07:03;;;;;;;7.65;2.55;;;;;;;;;;5071396;28;20047;-69
2022/05/10 11:09:37;;;;;;;4.28;2.40;;;;;;;;;;5070739;28;20058;-64
2022/05/10 11:12:21;;;;;;;6.50;2.53;;;;;;;;;;5071838;28;20099;-66
2022/05/10 11:15:11;;;;;;;4.20;2.40;;;;;;;;;;5071343;28;20024;-64
2022/05/10 11:18:06;;;;;;;5.03;2.40;;;;;;;;;;5071928;28;20153;-66
2022/05/10 11:21:09;;;;;;;6.28;2.47;;;;;;;;;;5071414;28;20249;-69
2022/05/10 11:23:50;;;;;;;5.35;2.38;;;;;;;;;;5071320;28;20032;-68
2022/05/10 11:26:15;;;;;;;6.38;2.40;;;;;;;;;;5071370;28;20020;-71
2022/05/10 11:29:05;;;;;;;7.50;2.42;;;;;;;;;;5071171;28;20266;-67
2022/05/10 11:31:45;;;;;;;6.78;2.70;;;;;;;;;;5071115;28;20434;-68
2022/05/10 11:34:13;;;;;;;4.82;2.40;;;;;;;;;;5071260;28;20504;-68
2022/05/10 11:36:44;;;;;;;6.03;2.40;;;;;;;;;;5071660;28;20032;-64
2022/05/10 11:39:09;;;;;;;6.18;2.45;;;;;;;;;;5070910;28;20028;-65
2022/05/10 11:41:54;;;;;;;4.82;2.28;;;;;;;;;;5071250;28;20028;-70
2022/05/10 11:44:33;;;;;;;5.50;2.78;;;;;;;;;;5070553;28;20427;-66
2022/05/10 11:47:20;;;;;;;5.50;2.35;;;;;;;;;;5071200;28;20020;-68
2022/05/10 11:50:17;;;;;;;6.35;2.30;;;;;;;;;;5070566;28;20036;-68
2022/05/10 11:53:15;;;;;;;7.85;2.55;;;;;;;;;;5071276;28;20396;-66
2022/05/10 11:55:46;;;;;;;5.75;2.25;;;;;;;;;;5070834;28;20025;-68
2022/05/10 11:58:13;;;;;;;8.45;2.60;;;;;;;;;;5070632;28;20035;-68
2022/05/10 12:00:54;;;;;;;5.80;2.40;;;;;;;;;;5070378;28;20021;-69
2022/05/10 12:03:44;;;;;;;7.28;2.55;;;;;;;;;;5070629;28;20032;-68
2022/05/10 12:06:24;;;;;;;5.55;2.35;;;;;;;;;;5070790;28;20025;-65
2022/05/10 12:08:52;;;;;;;8.02;2.35;;;;;;;;;;5070415;28;20044;-69
2022/05/10 12:11:37;;;;;;;7.75;2.38;;;;;;;;;;5070562;28;20032;-65
2022/05/10 12:22:58;;;;;;;4.95;2.15;;;;;;;;;;5070751;28;20119;-68
2022/05/10 12:25:57;;;;;;;5.82;2.53;;;;;;;;;;5070384;28;20496;-66
2022/05/10 12:28:45;;;;;;;5.45;2.58;;;;;;;;;;5070401;28;20090;-65
2022/05/10 12:31:34;;;;;;;8.98;2.60;;;;;;;;;;5069896;28;20032;-65
2022/05/10 12:34:03;;;;;;;5.40;2.88;;;;;;;;;;5021263;28;20119;-65
2022/05/10 12:36:32;;;;;;;5.68;2.40;;;;;;;;;;5069863;28;20090;-65
2022/05/10 12:39:29;;;;;;;6.93;2.90;;;;;;;;;;5070034;28;20021;-66
2022/05/10 12:42:07;;;;;;;6.03;2.33;;;;;;;;;;5070093;28;20638;-64
2022/05/10 12:44:50;;;;;;;8.35;2.40;;;;;;;;;;5069787;28;20504;-65
2022/05/10 12:47:34;;;;;;;6.72;2.42;;;;;;;;;;5069877;28;20028;-64
2022/05/10 12:50:32;;;;;;;7.00;2.53;;;;;;;;;;5069541;28;20060;-69
2022/05/10 12:52:57;;;;;;;6.47;2.50;;;;;;;;;;5014214;28;20651;-68
2022/05/10 12:55:26;;;;;;;4.88;2.25;;;;;;;;;;5069517;28;20021;-68
2022/05/10 12:57:54;;;;;;;6.13;2.28;;;;;;;;;;5070024;28;20024;-69
2022/05/10 13:00:33;;;;;;;5.00;2.40;;;;;;;;;;5069126;28;20024;-66
2022/05/10 13:03:07;;;;;;;5.50;2.17;;;;;;;;;;5069870;28;20613;-66
2022/05/10 13:05:59;;;;;;;7.20;2.40;;;;;;;;;;5069341;28;20070;-65
2022/05/10 13:08:46;;;;;;;7.00;2.30;;;;;;;;;;5069493;28;20037;-65
2022/05/10 13:11:13;;;;;;;5.32;2.10;;;;;;;;;;5069238;28;20412;-65
2022/05/10 13:13:39;;;;;;;4.78;2.53;;;;;;;;;;5069373;28;20024;-69
2022/05/10 13:16:14;;;;;;;4.88;2.05;;;;;;;;;;5069128;28;20103;-64
2022/05/10 13:18:42;;;;;;;5.28;2.28;;;;;;;;;;5069426;28;20531;-67
2022/05/10 13:21:07;;;;;;;8.05;2.30;;;;;;;;;;5069244;28;20032;-67
2022/05/10 13:23:34;;;;;;;8.15;2.38;;;;;;;;;;5069355;28;20020;-66
2022/05/10 13:26:08;;;;;;;9.25;2.30;;;;;;;;;;5069145;28;20021;-66
2022/05/10 13:28:48;;;;;;;6.68;2.60;;;;;;;;;;5069044;28;20119;-64
2022/05/10 13:31:20;;;;;;;9.90;2.35;;;;;;;;;;5068459;28;20020;-65
2022/05/10 13:33:46;;;;;;;5.47;2.22;;;;;;;;;;5069458;28;20036;-68
2022/05/10 13:36:13;;;;;;;8.80;2.20;;;;;;;;;;5069126;28;20024;-65
2022/05/10 13:38:53;;;;;;;13.10;2.35;;;;;;;;;;5069410;28;20115;-67
2022/05/10 13:41:30;;;;;;;6.97;2.25;;;;;;;;;;5069305;28;20384;-67
2022/05/10 13:44:04;;;;;;;10.20;2.47;;;;;;;;;;5069162;28;20049;-65
2022/05/10 13:46:37;;;;;;;7.03;2.30;;;;;;;;;;5068517;28;20032;-69
2022/05/10 13:49:12;;;;;;;8.02;2.53;;;;;;;;;;5069192;28;20112;-64
2022/05/10 13:51:49;;;;;;;8.23;2.40;;;;;;;;;;5069442;28;20032;-70
2022/05/10 13:54:29;;;;;;;5.93;2.20;;;;;;;;;;5069509;28;20020;-66
2022/05/10 13:57:18;;;;;;;8.18;2.28;;;;;;;;;;5068754;28;20028;-70
2022/05/10 13:59:44;;;;;;;6.07;2.53;;;;;;;;;;5068354;28;20516;-66
2022/05/10 14:02:12;;;;;;;6.07;2.65;;;;;;;;;;5068497;28;20033;-67
2022/05/10 14:04:42;;;;;;;5.10;2.17;;;;;;;;;;5068790;28;20036;-68
2022/05/10 14:07:25;;;;;;;6.68;2.40;;;;;;;;;;5068933;28;20587;-66
2022/05/10 14:09:55;;;;;;;9.35;2.20;;;;;;;;;;5068654;28;20036;-65
2022/05/10 14:12:26;;;;;;;;;;;;;;;;;;5051320;28;20558;-70
2022/05/10 14:14:52;;;;;;;5.75;2.35;;;;;;;;;;5068321;28;19916;-69
2022/05/10 14:17:18;;;;;;;7.32;2.47;;;;;;;;;;5068628;28;20036;-67
2022/05/10 14:19:46;;;;;;;7.18;2.60;;;;;;;;;;5068640;28;20028;-68
2022/05/10 14:22:22;;;;;;;5.13;2.30;;;;;;;;;;5068656;28;20111;-65
2022/05/10 14:24:48;;;;;;;6.03;2.40;;;;;;;;;;5068934;28;20024;-70
2022/05/10 14:27:23;;;;;;;7.40;2.55;;;;;;;;;;5069027;28;20028;-65
2022/05/10 14:29:55;;;;;;;5.78;2.42;;;;;;;;;;5068377;28;20499;-66
2022/05/10 14:32:20;;;;;;;6.63;2.58;;;;;;;;;;5068524;28;20419;-68
2022/05/10 14:35:07;;;;;;;6.20;2.47;;;;;;;;;;5068581;28;20039;-68
2022/05/10 14:37:42;;;;;;;7.65;2.60;;;;;;;;;;5068221;28;20032;-67
2022/05/10 14:40:29;;;;;;;5.70;2.63;;;;;;;;;;5068511;28;20491;-65
2022/05/10 14:43:03;;;;;;;8.25;2.50;;;;;;;;;;5069015;28;20044;-64
2022/05/10 14:45:45;;;;;;;8.95;2.40;;;;;;;;;;5071887;28;20037;-65
2022/05/10 14:48:34;;;;;;;6.68;2.78;;;;;;;;;;5071906;28;20492;-66
2022/05/10 14:51:05;;;;;;;6.90;2.78;;;;;;;;;;5071922;28;20108;-67
2022/05/10 14:53:36;;;;;;;9.38;3.03;;;;;;;;;;5071783;28;20023;-67
2022/05/10 14:56:03;;;;;;;6.63;2.92;;;;;;;;;;5071992;28;20400;-66
2022/05/10 14:58:37;;;;;;;6.05;3.03;;;;;;;;;;5071858;28;20024;-64
2022/05/10 15:01:07;;;;;;;7.13;2.80;;;;;;;;;;5071498;28;20480;-68
2022/05/10 15:03:34;;;;;;;8.02;2.92;;;;;;;;;;5071966;28;20547;-65
2022/05/10 15:06:00;;;;;;;7.53;2.88;;;;;;;;;;5071895;28;20270;-69
2022/05/10 15:08:26;;;;;;;10.18;2.88;;;;;;;;;;5071645;28;20535;-69
2022/05/10 15:10:55;;;;;;;11.45;3.10;;;;;;;;;;5071509;28;20024;-65
2022/05/10 15:13:22;;;;;;;6.50;2.92;;;;;;;;;;5071673;28;20514;-68
2022/05/10 15:16:00;;;;;;;7.97;2.92;;;;;;;;;;5071846;28;20211;-64
2022/05/10 15:21:35;;;;;;;7.00;3.00;;;;;;;;;;4989573;28;20036;-68
2022/05/10 15:24:02;;;;;;;10.57;3.33;;;;;;;;;;5056314;28;20037;-69
2022/05/10 15:26:49;;;;;;;9.65;2.95;;;;;;;;;;5071431;28;20030;-65
2022/05/10 15:29:22;;;;;;;9.32;3.40;;;;;;;;;;5071465;28;20025;-68
2022/05/10 15:31:48;;;;;;;8.00;3.28;;;;;;;;;;5071151;28;20479;-70
2022/05/10 15:36:58;;;;;;;7.10;3.17;;;;;;;;;;5071503;28;20032;-69
2022/05/10 15:39:23;;;;;;;6.40;2.83;;;;;;;;;;5071326;28;20016;-68
2022/05/10 15:41:49;;;;;;;11.15;3.53;;;;;;;;;;5070881;28;20040;-65